createdAt,value
2022-12-14T00:21:08.423Z,1005.14
2022-12-14T00:49:25.390Z,1004.96
2022-12-14T01:17:41.099Z,1004.64
2022-12-14T01:46:41.248Z,1004.66
2022-12-14T02:15:21.060Z,1004.32
2022-12-14T02:44:12.807Z,1004.37
2022-12-14T03:12:59.900Z,1004.31
2022-12-14T03:41:49.752Z,1003.88
2022-12-14T04:10:04.815Z,1003.37
2022-12-14T04:38:59.923Z,1003.04
2022-12-14T05:07:27.718Z,1002.88
2022-12-14T05:35:45.884Z,1002.93
2022-12-14T06:03:59.650Z,1002.54
2022-12-14T06:32:42.259Z,1002.17
2022-12-14T07:01:51.497Z,1001.96
2022-12-14T07:30:20.998Z,1001.82
2022-12-14T07:59:28.197Z,1001.82
2022-12-14T08:28:19.321Z,1001.6
2022-12-14T08:57:11.386Z,1001.67
2022-12-14T09:26:11.384Z,1001.56
2022-12-14T09:55:05.591Z,1001.74
2022-12-14T10:23:53.911Z,1001.78
2022-12-14T10:52:40.698Z,1001.77
2022-12-14T11:21:29.878Z,1001.73
2022-12-14T11:50:36.668Z,1001.92
2022-12-14T12:19:39.270Z,1001.98
2022-12-14T12:48:34.566Z,1001.99
2022-12-14T13:17:28.021Z,1002.2
2022-12-14T13:46:21.852Z,1002.65
2022-12-14T14:15:04.263Z,1002.86
2022-12-14T14:43:56.417Z,1003.48
2022-12-14T15:12:43.412Z,1003.94
2022-12-14T15:41:38.019Z,1004.12
2022-12-14T16:09:55.959Z,1004.41
2022-12-14T16:38:11.755Z,1004.5
2022-12-14T17:07:06.402Z,1004.83
2022-12-14T17:36:01.841Z,1005.04
2022-12-14T18:04:57.988Z,1004.8
2022-12-14T18:33:37.038Z,1005.07
2022-12-14T19:02:35.509Z,1005.45
2022-12-14T19:31:05.890Z,1005.47
2022-12-14T19:59:42.057Z,1005.56
2022-12-14T20:28:34.693Z,1005.82
2022-12-14T20:57:28.086Z,1005.83
2022-12-14T21:26:19.461Z,1005.82
2022-12-14T21:55:13.012Z,1005.96
2022-12-14T22:24:09.573Z,1006.04
2022-12-14T22:52:57.362Z,1006.24
2022-12-14T23:21:43.142Z,1006.68
2022-12-14T23:49:56.132Z,1006.72
